sim
Sign-in with your pilot id or email,
or register
Callsign
Passwort

Schedule Details

Flight Number: EWG230
Departure: Munich Airport (EDDM) at 11:30
Arrival: Varadero Juan Gualberto Gomez Airport (MUVR) at 22:50
Route: Eurowings Passenger Schedule. Enter filed route here before submitting Pirep.

Weather Information
Getting current METAR information for EDDM 221720Z 12002KT 9999 FEW040CB 19/15 Q1010 NOSIG
Getting current METAR information for MUVR 221650Z 07012KT 9000 SCT020 SCT080 29/23 Q1014

Schedule Frequency

Route Map